createdAt,value
2019-03-17T00:01:26.952Z,97226.49
2019-03-17T00:03:54.979Z,97231.11
2019-03-17T00:06:23.080Z,97225.40
2019-03-17T00:08:51.006Z,97223.75
2019-03-17T00:11:19.194Z,97223.12
2019-03-17T00:13:47.250Z,97220.04
2019-03-17T00:16:15.281Z,97208.02
2019-03-17T00:18:43.370Z,97212.63
2019-03-17T00:21:11.163Z,97212.63
2019-03-17T00:23:38.898Z,97206.06
2019-03-17T00:26:06.757Z,97206.68
2019-03-17T00:28:34.466Z,97203.09
2019-03-17T00:31:02.147Z,97204.91
2019-03-17T00:33:29.926Z,97191.40
2019-03-17T00:35:57.906Z,97197.56
2019-03-17T00:38:25.644Z,97193.38
2019-03-17T00:40:53.310Z,97190.13
2019-03-17T00:43:20.967Z,97185.63
2019-03-17T00:45:49.798Z,97185.97
2019-03-17T00:48:17.491Z,97184.07
2019-03-17T00:50:45.369Z,97183.55
2019-03-17T00:53:13.153Z,97186.04
2019-03-17T00:55:40.820Z,97184.34
2019-03-17T00:58:08.521Z,97187.94
2019-03-17T01:00:36.159Z,97187.17
2019-03-17T01:03:03.959Z,97174.98
2019-03-17T01:05:31.761Z,97176.92
2019-03-17T01:07:59.640Z,97175.09
2019-03-17T01:10:27.345Z,97175.15
2019-03-17T01:12:55.098Z,97169.97
2019-03-17T01:15:22.840Z,97170.32
2019-03-17T01:17:50.676Z,97167.02
2019-03-17T01:20:18.380Z,97168.59
2019-03-17T01:22:46.016Z,97153.83
2019-03-17T01:25:13.617Z,97151.42
2019-03-17T01:27:41.193Z,97152.06
2019-03-17T01:30:08.932Z,97153.92
2019-03-17T01:32:36.558Z,97145.92
2019-03-17T01:35:09.621Z,97144.02
2019-03-17T01:37:34.663Z,97133.59
2019-03-17T01:40:02.382Z,97126.92
2019-03-17T01:42:29.951Z,97122.97
2019-03-17T01:44:57.638Z,97133.96
2019-03-17T01:47:27.707Z,97113.52
2019-03-17T01:49:54.896Z,97110.98
2019-03-17T01:52:22.512Z,97124.66
2019-03-17T01:54:50.115Z,97122.83
2019-03-17T01:57:17.738Z,97112.17
2019-03-17T01:59:45.410Z,97110.77
2019-03-17T02:02:13.063Z,97111.05
2019-03-17T02:04:40.761Z,97107.03
2019-03-17T02:07:08.417Z,97112.36
2019-03-17T02:09:36.128Z,97104.16
2019-03-17T02:12:03.772Z,97102.02
2019-03-17T02:14:31.569Z,97106.80
2019-03-17T02:16:59.187Z,97096.18
2019-03-17T02:19:26.841Z,97102.88
2019-03-17T02:21:54.554Z,97100.20
2019-03-17T02:24:22.234Z,97095.56
2019-03-17T02:26:49.858Z,97107.89
2019-03-17T02:29:17.562Z,97095.81
2019-03-17T02:31:45.145Z,97096.81
2019-03-17T02:34:12.966Z,97094.22
2019-03-17T02:36:40.618Z,97096.44
2019-03-17T02:39:08.313Z,97110.83
2019-03-17T02:41:35.949Z,97092.51
2019-03-17T02:44:03.649Z,97100.66
2019-03-17T02:46:31.271Z,97092.51
2019-03-17T02:48:59.015Z,97099.19
2019-03-17T02:51:26.593Z,97104.42
2019-03-17T02:53:54.278Z,97099.19
2019-03-17T02:56:21.886Z,97095.48
2019-03-17T02:58:49.578Z,97099.55
2019-03-17T03:01:17.267Z,97094.66
2019-03-17T03:03:45.031Z,97100.34
2019-03-17T03:06:13.055Z,97100.97
2019-03-17T03:08:42.307Z,97100.75
2019-03-17T03:11:10.190Z,97092.96
2019-03-17T03:13:38.304Z,97093.10
2019-03-17T03:16:06.419Z,97094.91
2019-03-17T03:18:34.674Z,97096.13
2019-03-17T03:21:02.273Z,97099.19
2019-03-17T03:23:30.297Z,97104.77
2019-03-17T03:25:58.281Z,97104.92
2019-03-17T03:28:28.162Z,97096.63
2019-03-17T03:30:56.214Z,97100.25
2019-03-17T03:33:24.065Z,97099.23
2019-03-17T03:35:52.239Z,97103.78
2019-03-17T03:38:20.263Z,97102.77
2019-03-17T03:40:48.121Z,97099.34
2019-03-17T03:43:16.212Z,97099.33
2019-03-17T03:45:44.261Z,97105.06
2019-03-17T03:48:12.359Z,97102.47
2019-03-17T03:50:40.215Z,97101.86
2019-03-17T03:53:08.168Z,97097.56
2019-03-17T03:55:36.216Z,97095.70
2019-03-17T03:58:04.218Z,97101.77
2019-03-17T04:00:32.283Z,97097.30
2019-03-17T04:03:00.357Z,97092.97
2019-03-17T04:05:32.408Z,97079.83
2019-03-17T04:07:58.498Z,97085.97
2019-03-17T04:10:26.472Z,97088.75
2019-03-17T04:12:54.615Z,97090.11
2019-03-17T04:15:22.614Z,97090.29
2019-03-17T04:17:50.849Z,97087.81
2019-03-17T04:20:18.707Z,97087.81
2019-03-17T04:22:46.606Z,97085.11
2019-03-17T04:25:16.472Z,97069.96
2019-03-17T04:27:44.376Z,97069.02
2019-03-17T04:30:12.529Z,97064.78
2019-03-17T04:32:40.525Z,97066.95
2019-03-17T04:35:08.679Z,97058.52
2019-03-17T04:37:36.644Z,97059.42
2019-03-17T04:40:04.499Z,97067.61
2019-03-17T04:42:32.202Z,97052.83
2019-03-17T04:44:59.895Z,97054.55
2019-03-17T04:47:27.608Z,97051.82
2019-03-17T04:49:55.346Z,97053.64
2019-03-17T04:52:23.039Z,97057.91
2019-03-17T04:54:50.771Z,97055.45
2019-03-17T04:57:18.498Z,97056.16
2019-03-17T04:59:46.216Z,97065.63
2019-03-17T05:02:14.926Z,97061.09
2019-03-17T05:04:42.607Z,97070.08
2019-03-17T05:07:10.383Z,97068.47
2019-03-17T05:09:38.084Z,97075.14
2019-03-17T05:12:06.011Z,97072.39
2019-03-17T05:14:33.751Z,97064.55
2019-03-17T05:17:01.427Z,97061.53
2019-03-17T05:19:29.130Z,97065.13
2019-03-17T05:21:57.870Z,97055.50
2019-03-17T05:24:25.622Z,97058.06
2019-03-17T05:26:53.222Z,97055.82
2019-03-17T05:29:20.927Z,97058.33
2019-03-17T05:31:48.540Z,97059.98
2019-03-17T05:34:16.313Z,97058.57
2019-03-17T05:36:44.873Z,97059.13
2019-03-17T05:39:12.562Z,97062.30
2019-03-17T05:41:40.288Z,97062.72
2019-03-17T05:44:07.987Z,97062.86
2019-03-17T05:46:35.575Z,97071.42
2019-03-17T05:49:03.477Z,97065.73
2019-03-17T05:51:32.526Z,97068.45
2019-03-17T05:54:00.155Z,97066.70
2019-03-17T05:56:27.816Z,97072.88
2019-03-17T05:58:57.161Z,97072.94
2019-03-17T06:01:24.722Z,97078.17
2019-03-17T06:03:52.420Z,97074.89
2019-03-17T06:06:19.975Z,97082.48
2019-03-17T06:08:47.674Z,97078.47
2019-03-17T06:11:15.316Z,97084.86
2019-03-17T06:13:43.369Z,97080.07
2019-03-17T06:16:11.364Z,97085.80
2019-03-17T06:18:39.262Z,97086.02
2019-03-17T06:21:06.862Z,97086.77
2019-03-17T06:23:34.743Z,97092.55
2019-03-17T06:26:02.340Z,97085.23
2019-03-17T06:28:30.010Z,97089.30
2019-03-17T06:30:57.613Z,97083.28
2019-03-17T06:33:25.293Z,97090.65
2019-03-17T06:35:52.894Z,97078.53
2019-03-17T06:38:20.566Z,97076.05
2019-03-17T06:40:48.264Z,97082.05
2019-03-17T06:43:15.978Z,97082.45
2019-03-17T06:45:43.550Z,97080.98
2019-03-17T06:48:11.162Z,97078.19
2019-03-17T06:50:38.728Z,97075.68
2019-03-17T06:53:06.474Z,97068.57
2019-03-17T06:55:34.071Z,97083.38
2019-03-17T06:58:01.676Z,97087.14
2019-03-17T07:00:29.478Z,97086.92
2019-03-17T07:02:57.254Z,97074.76
2019-03-17T07:05:24.952Z,97075.32
2019-03-17T07:07:52.691Z,97075.66
2019-03-17T07:10:22.061Z,97073.53
2019-03-17T07:12:49.854Z,97067.30
2019-03-17T07:15:17.523Z,97064.05
2019-03-17T07:17:45.157Z,97055.82
2019-03-17T07:20:12.789Z,97070.22
2019-03-17T07:22:40.403Z,97065.52
2019-03-17T07:25:08.485Z,97074.67
2019-03-17T07:27:36.161Z,97063.25
2019-03-17T07:30:05.791Z,97065.66
2019-03-17T07:32:33.561Z,97065.49
2019-03-17T07:35:01.242Z,97061.56
2019-03-17T07:37:28.951Z,97065.75
2019-03-17T07:39:56.794Z,97058.55
2019-03-17T07:42:24.631Z,97062.22
2019-03-17T07:44:52.388Z,97061.18
2019-03-17T07:47:20.033Z,97056.14
2019-03-17T07:49:47.707Z,97055.95
2019-03-17T07:52:15.379Z,97050.25
2019-03-17T07:54:43.090Z,97052.17
2019-03-17T07:57:12.457Z,97052.23
2019-03-17T07:59:40.145Z,97046.95
2019-03-17T08:02:07.806Z,97048.16
2019-03-17T08:04:42.318Z,97036.75
2019-03-17T08:07:05.046Z,97048.76
2019-03-17T08:09:33.125Z,97045.91
2019-03-17T08:12:00.701Z,97051.64
2019-03-17T08:14:28.391Z,97053.92
2019-03-17T08:16:56.602Z,97050.95
2019-03-17T08:19:24.647Z,97050.75
2019-03-17T08:21:52.272Z,97045.00
2019-03-17T08:24:19.974Z,97043.56
2019-03-17T08:26:50.036Z,97039.80
2019-03-17T08:29:19.158Z,97045.07
2019-03-17T08:31:47.165Z,97042.23
2019-03-17T08:34:15.255Z,97053.64
2019-03-17T08:36:43.069Z,97055.38
2019-03-17T08:39:11.031Z,97060.39
2019-03-17T08:41:39.207Z,97057.36
2019-03-17T08:44:08.937Z,97054.98
2019-03-17T08:46:36.964Z,97052.59
2019-03-17T08:49:05.117Z,97045.88
2019-03-17T08:51:33.613Z,97033.53
2019-03-17T08:54:01.823Z,97035.41
2019-03-17T08:56:29.564Z,97039.66
2019-03-17T08:58:57.343Z,97043.52
2019-03-17T09:01:25.362Z,97036.76
2019-03-17T09:03:53.439Z,97035.64
2019-03-17T09:06:21.087Z,97027.18
2019-03-17T09:08:48.859Z,97031.69
2019-03-17T09:11:16.476Z,97023.27
2019-03-17T09:13:44.117Z,97016.59
2019-03-17T09:16:11.678Z,97024.64
2019-03-17T09:18:39.396Z,97018.76
2019-03-17T09:21:06.972Z,97034.57
2019-03-17T09:23:34.685Z,97018.72
2019-03-17T09:26:03.267Z,97023.36
2019-03-17T09:28:30.994Z,97019.53
2019-03-17T09:30:58.648Z,97015.58
2019-03-17T09:33:26.846Z,97017.58
2019-03-17T09:35:54.790Z,97008.58
2019-03-17T09:38:22.858Z,97013.77
2019-03-17T09:40:50.713Z,97014.33
2019-03-17T09:43:18.502Z,96987.45
2019-03-17T09:45:46.153Z,96988.27
2019-03-17T09:48:13.835Z,96984.20
2019-03-17T09:50:41.496Z,96987.98
2019-03-17T09:53:09.073Z,96981.52
2019-03-17T09:55:36.800Z,96971.41
2019-03-17T09:58:04.481Z,96974.63
2019-03-17T10:00:32.076Z,96969.66
2019-03-17T10:02:59.687Z,96977.42
2019-03-17T10:05:27.365Z,96978.08
2019-03-17T10:07:55.063Z,96963.95
2019-03-17T10:10:22.887Z,96959.56
2019-03-17T10:12:50.545Z,96958.55
2019-03-17T10:15:22.965Z,96952.48
2019-03-17T10:17:52.473Z,96959.89
2019-03-17T10:20:20.282Z,96954.50
2019-03-17T10:22:47.939Z,96956.54
2019-03-17T10:25:16.820Z,96941.05
2019-03-17T10:27:45.587Z,96944.66
2019-03-17T10:30:13.631Z,96934.63
2019-03-17T10:32:41.177Z,96931.47
2019-03-17T10:35:08.883Z,96929.37
2019-03-17T10:37:36.561Z,96926.29
2019-03-17T10:40:07.318Z,96922.21
2019-03-17T10:42:35.069Z,96925.86
2019-03-17T10:45:02.709Z,96921.55
2019-03-17T10:47:34.298Z,96904.97
2019-03-17T10:50:07.821Z,96916.68
2019-03-17T10:52:38.005Z,96907.78
2019-03-17T10:55:07.659Z,96909.09
2019-03-17T10:57:35.364Z,96904.51
2019-03-17T11:00:08.780Z,96891.33
2019-03-17T11:02:37.673Z,96887.31
2019-03-17T11:05:07.482Z,96884.44
2019-03-17T11:07:37.935Z,96881.98
2019-03-17T11:10:06.731Z,96882.66
2019-03-17T11:12:34.383Z,96873.48
2019-03-17T11:15:03.716Z,96870.59
2019-03-17T11:17:33.646Z,96845.03
2019-03-17T11:20:01.737Z,96845.03
2019-03-17T11:22:29.530Z,96850.28
2019-03-17T11:24:59.797Z,96845.09
2019-03-17T11:27:30.091Z,96839.75
2019-03-17T11:29:57.919Z,96837.77
2019-03-17T11:32:25.509Z,96834.28
2019-03-17T11:34:53.136Z,96817.28
2019-03-17T11:37:23.454Z,96817.28
2019-03-17T11:39:50.348Z,96815.37
2019-03-17T11:42:18.077Z,96812.95
2019-03-17T11:44:45.810Z,96809.91
2019-03-17T11:47:13.397Z,96795.95
2019-03-17T11:49:41.145Z,96789.03
2019-03-17T11:52:08.871Z,96782.03
2019-03-17T11:54:36.449Z,96776.11
2019-03-17T11:57:04.097Z,96776.77
2019-03-17T11:59:31.748Z,96776.97
2019-03-17T12:01:59.387Z,96765.45
2019-03-17T12:04:27.076Z,96757.07
2019-03-17T12:06:54.718Z,96747.06
2019-03-17T12:09:29.034Z,96745.39
2019-03-17T12:11:51.860Z,96741.63
2019-03-17T12:14:19.510Z,96732.59
2019-03-17T12:16:47.196Z,96737.17
2019-03-17T12:19:14.804Z,96722.38
2019-03-17T12:21:42.435Z,96705.58
2019-03-17T12:24:11.057Z,96713.84
2019-03-17T12:26:38.723Z,96710.80
2019-03-17T12:29:07.186Z,96707.75
2019-03-17T12:31:34.820Z,96693.55
2019-03-17T12:34:02.679Z,96689.30
2019-03-17T12:36:30.448Z,96686.23
2019-03-17T12:38:58.170Z,96686.34
2019-03-17T12:41:25.920Z,96679.76
2019-03-17T12:43:53.621Z,96684.11
2019-03-17T12:46:21.196Z,96673.72
2019-03-17T12:48:50.031Z,96666.09
2019-03-17T12:51:17.667Z,96658.56
2019-03-17T12:53:45.349Z,96652.63
2019-03-17T12:56:12.883Z,96646.50
2019-03-17T12:58:43.665Z,96648.26
2019-03-17T13:01:11.307Z,96643.42
2019-03-17T13:03:39.001Z,96636.61
2019-03-17T13:06:07.641Z,96624.91
2019-03-17T13:08:35.300Z,96620.53
2019-03-17T13:11:02.938Z,96614.11
2019-03-17T13:13:32.107Z,96610.95
2019-03-17T13:15:59.682Z,96603.50
2019-03-17T13:18:31.131Z,96601.37
2019-03-17T13:20:59.865Z,96601.31
2019-03-17T13:23:27.515Z,96593.23
2019-03-17T13:25:55.085Z,96598.06
2019-03-17T13:28:22.681Z,96587.94
2019-03-17T13:30:50.305Z,96579.47
2019-03-17T13:33:17.946Z,96575.84
2019-03-17T13:35:45.789Z,96583.70
2019-03-17T13:38:13.350Z,96572.20
2019-03-17T13:40:40.991Z,96574.33
2019-03-17T13:43:08.587Z,96578.59
2019-03-17T13:45:36.263Z,96581.92
2019-03-17T13:48:03.970Z,96572.64
2019-03-17T13:50:31.674Z,96575.67
2019-03-17T13:52:59.342Z,96566.32
2019-03-17T13:55:26.925Z,96577.34
2019-03-17T13:57:55.788Z,96559.59
2019-03-17T14:00:23.493Z,96562.21
2019-03-17T14:02:51.181Z,96558.70
2019-03-17T14:05:18.853Z,96557.45
2019-03-17T14:07:46.436Z,96559.87
2019-03-17T14:10:14.942Z,96558.19
2019-03-17T14:12:42.650Z,96549.41
2019-03-17T14:15:11.717Z,96557.27
2019-03-17T14:17:39.403Z,96560.48
2019-03-17T14:20:08.945Z,96542.24
2019-03-17T14:22:36.637Z,96537.70
2019-03-17T14:25:06.422Z,96551.56
2019-03-17T14:27:34.114Z,96519.23
2019-03-17T14:30:01.673Z,96533.91
2019-03-17T14:32:29.292Z,96531.30
2019-03-17T14:34:56.911Z,96531.62
2019-03-17T14:37:24.608Z,96538.03
2019-03-17T14:39:52.343Z,96520.17
2019-03-17T14:42:20.025Z,96520.18
2019-03-17T14:44:47.730Z,96519.41
2019-03-17T14:47:15.399Z,96514.91
2019-03-17T14:49:43.023Z,96514.33
2019-03-17T14:52:10.703Z,96501.05
2019-03-17T14:54:38.292Z,96494.02
2019-03-17T14:57:06.147Z,96487.78
2019-03-17T14:59:33.761Z,96488.97
2019-03-17T15:02:01.357Z,96488.86
2019-03-17T15:04:29.296Z,96478.94
2019-03-17T15:06:56.854Z,96487.59
2019-03-17T15:09:24.447Z,96491.84
2019-03-17T15:11:52.054Z,96480.16
2019-03-17T15:14:20.013Z,96475.02
2019-03-17T15:16:47.797Z,96477.42
2019-03-17T15:19:15.779Z,96477.41
2019-03-17T15:21:43.632Z,96469.41
2019-03-17T15:24:11.279Z,96462.80
2019-03-17T15:26:39.287Z,96464.22
2019-03-17T15:29:07.242Z,96470.27
2019-03-17T15:31:35.101Z,96463.08
2019-03-17T15:34:02.983Z,96458.52
2019-03-17T15:36:30.836Z,96460.53
2019-03-17T15:38:58.881Z,96460.19
2019-03-17T15:41:26.813Z,96465.60
2019-03-17T15:43:55.023Z,96460.27
2019-03-17T15:46:22.884Z,96465.00
2019-03-17T15:48:51.045Z,96455.63
2019-03-17T15:51:20.849Z,96453.67
2019-03-17T15:53:49.253Z,96455.05
2019-03-17T15:56:17.273Z,96463.44
2019-03-17T15:58:45.509Z,96459.42
2019-03-17T16:01:13.534Z,96463.30
2019-03-17T16:03:41.539Z,96467.81
2019-03-17T16:06:09.571Z,96467.48
2019-03-17T16:08:37.458Z,96460.92
2019-03-17T16:11:05.855Z,96468.41
2019-03-17T16:13:34.055Z,96458.66
2019-03-17T16:16:01.927Z,96456.03
2019-03-17T16:18:29.798Z,96455.41
2019-03-17T16:20:57.712Z,96451.88
2019-03-17T16:23:25.704Z,96457.42
2019-03-17T16:25:53.730Z,96454.73
2019-03-17T16:28:21.798Z,96454.06
2019-03-17T16:30:49.688Z,96458.74
2019-03-17T16:33:17.791Z,96461.62
2019-03-17T16:35:46.448Z,96465.84
2019-03-17T16:38:14.721Z,96462.66
2019-03-17T16:40:43.872Z,96463.02
2019-03-17T16:43:21.152Z,96466.22
2019-03-17T16:45:49.130Z,96469.22
2019-03-17T16:48:18.601Z,96474.89
2019-03-17T16:50:46.820Z,96470.81
2019-03-17T16:53:15.069Z,96474.66
2019-03-17T16:55:45.035Z,96468.78
2019-03-17T16:58:12.989Z,96475.61
2019-03-17T17:00:41.220Z,96474.09
2019-03-17T17:03:09.305Z,96477.70
2019-03-17T17:05:37.222Z,96467.02
2019-03-17T17:08:05.118Z,96478.50
2019-03-17T17:10:33.056Z,96477.28
2019-03-17T17:13:01.214Z,96469.86
2019-03-17T17:15:29.334Z,96473.78
2019-03-17T17:17:58.214Z,96489.97
2019-03-17T17:20:27.910Z,96490.77
2019-03-17T17:22:57.000Z,96483.34
2019-03-17T17:25:24.988Z,96490.84
2019-03-17T17:27:52.980Z,96476.22
2019-03-17T17:30:22.062Z,96486.50
2019-03-17T17:32:50.125Z,96501.48
2019-03-17T17:35:18.658Z,96498.09
2019-03-17T17:37:46.620Z,96520.73
2019-03-17T17:40:15.281Z,96511.18
2019-03-17T17:42:43.260Z,96486.57
2019-03-17T17:45:12.503Z,96501.67
2019-03-17T17:47:40.294Z,96504.79
2019-03-17T17:50:09.402Z,96516.60
2019-03-17T17:52:37.405Z,96492.34
2019-03-17T17:55:07.274Z,96527.16
2019-03-17T17:57:35.184Z,96505.95
2019-03-17T18:00:04.240Z,96515.91
2019-03-17T18:02:32.539Z,96500.41
2019-03-17T18:05:00.626Z,96520.55
2019-03-17T18:07:28.474Z,96526.28
2019-03-17T18:09:56.515Z,96534.95
2019-03-17T18:12:24.528Z,96523.87
2019-03-17T18:14:52.478Z,96523.94
2019-03-17T18:17:20.245Z,96523.24
2019-03-17T18:19:48.224Z,96526.05
2019-03-17T18:22:16.140Z,96523.49
2019-03-17T18:24:44.052Z,96520.47
2019-03-17T18:27:14.937Z,96524.93
2019-03-17T18:29:42.964Z,96505.70
2019-03-17T18:32:11.120Z,96514.50
2019-03-17T18:34:39.123Z,96514.44
2019-03-17T18:44:19.752Z,96512.48
2019-03-17T18:46:47.873Z,96512.22
2019-03-17T18:49:15.929Z,96503.91
2019-03-17T19:05:20.182Z,96568.88
2019-03-17T19:07:47.991Z,96567.23
2019-03-17T19:10:16.718Z,96560.89
2019-03-17T19:43:34.616Z,96600.20
2019-03-17T19:46:02.387Z,96602.25
2019-03-17T19:52:01.411Z,96594.66
2019-03-17T19:54:29.122Z,96603.34
2019-03-17T19:56:56.792Z,96610.84
